sensor_id;sensor_type;location;lat;lon;timestamp;P1;durP1;ratioP1;P2;durP2;ratioP2
73959;SDS011;62316;48.920;2.342;2023-07-31T00:00:58;7.33;;;4.33;;
73959;SDS011;62316;48.920;2.342;2023-07-31T00:03:23;4.33;;;3.00;;
73959;SDS011;62316;48.920;2.342;2023-07-31T00:05:48;2.00;;;2.00;;
73959;SDS011;62316;48.920;2.342;2023-07-31T00:08:14;4.00;;;3.00;;
73959;SDS011;62316;48.920;2.342;2023-07-31T00:10:39;2.00;;;2.00;;
73959;SDS011;62316;48.920;2.342;2023-07-31T00:13:04;5.33;;;3.67;;
73959;SDS011;62316;48.920;2.342;2023-07-31T00:15:29;5.00;;;5.00;;
73959;SDS011;62316;48.920;2.342;2023-07-31T00:17:55;4.00;;;4.00;;
73959;SDS011;62316;48.920;2.342;2023-07-31T00:20:20;2.33;;;2.33;;
73959;SDS011;62316;48.920;2.342;2023-07-31T00:22:46;4.00;;;4.00;;
73959;SDS011;62316;48.920;2.342;2023-07-31T00:25:11;4.00;;;2.67;;
73959;SDS011;62316;48.920;2.342;2023-07-31T00:27:36;1.00;;;1.00;;
73959;SDS011;62316;48.920;2.342;2023-07-31T00:30:02;3.00;;;2.00;;
73959;SDS011;62316;48.920;2.342;2023-07-31T00:32:27;2.67;;;2.67;;
73959;SDS011;62316;48.920;2.342;2023-07-31T00:34:52;2.00;;;2.00;;
73959;SDS011;62316;48.920;2.342;2023-07-31T00:37:17;5.00;;;3.33;;
73959;SDS011;62316;48.920;2.342;2023-07-31T00:39:43;3.00;;;3.00;;
73959;SDS011;62316;48.920;2.342;2023-07-31T00:42:08;2.00;;;2.00;;
73959;SDS011;62316;48.920;2.342;2023-07-31T00:44:33;3.67;;;2.67;;
73959;SDS011;62316;48.920;2.342;2023-07-31T00:46:58;4.00;;;4.00;;
73959;SDS011;62316;48.920;2.342;2023-07-31T00:49:24;3.33;;;2.00;;
73959;SDS011;62316;48.920;2.342;2023-07-31T00:51:50;2.67;;;2.67;;
73959;SDS011;62316;48.920;2.342;2023-07-31T00:54:15;2.67;;;2.00;;
73959;SDS011;62316;48.920;2.342;2023-07-31T00:56:41;5.00;;;3.00;;
73959;SDS011;62316;48.920;2.342;2023-07-31T00:59:09;6.33;;;4.33;;
73959;SDS011;62316;48.920;2.342;2023-07-31T01:01:35;3.67;;;3.67;;
73959;SDS011;62316;48.920;2.342;2023-07-31T01:04:00;3.33;;;3.33;;
73959;SDS011;62316;48.920;2.342;2023-07-31T01:12:01;5.00;;;4.67;;
73959;SDS011;62316;48.920;2.342;2023-07-31T01:14:26;3.67;;;2.67;;
73959;SDS011;62316;48.920;2.342;2023-07-31T01:16:52;3.00;;;2.67;;
73959;SDS011;62316;48.920;2.342;2023-07-31T01:19:17;4.00;;;4.00;;
73959;SDS011;62316;48.920;2.342;2023-07-31T01:22:08;2.00;;;2.00;;
73959;SDS011;62316;48.920;2.342;2023-07-31T01:27:24;4.00;;;3.00;;
73959;SDS011;62316;48.920;2.342;2023-07-31T01:29:57;2.33;;;2.33;;
73959;SDS011;62316;48.920;2.342;2023-07-31T01:32:25;3.00;;;2.00;;
73959;SDS011;62316;48.920;2.342;2023-07-31T01:34:53;4.00;;;3.00;;
73959;SDS011;62316;48.920;2.342;2023-07-31T01:37:18;3.67;;;2.00;;
73959;SDS011;62316;48.920;2.342;2023-07-31T01:39:43;2.33;;;2.33;;
73959;SDS011;62316;48.920;2.342;2023-07-31T01:42:09;4.67;;;2.00;;
73959;SDS011;62316;48.920;2.342;2023-07-31T01:44:34;4.00;;;4.00;;
73959;SDS011;62316;48.920;2.342;2023-07-31T01:46:59;6.00;;;3.67;;
73959;SDS011;62316;48.920;2.342;2023-07-31T01:49:25;4.33;;;2.33;;
73959;SDS011;62316;48.920;2.342;2023-07-31T01:51:50;7.00;;;5.00;;
73959;SDS011;62316;48.920;2.342;2023-07-31T01:54:15;1.00;;;1.00;;
73959;SDS011;62316;48.920;2.342;2023-07-31T01:56:41;4.00;;;3.00;;
73959;SDS011;62316;48.920;2.342;2023-07-31T01:59:06;3.00;;;3.00;;
73959;SDS011;62316;48.920;2.342;2023-07-31T02:01:31;4.67;;;3.33;;
73959;SDS011;62316;48.920;2.342;2023-07-31T02:03:56;4.00;;;3.00;;
73959;SDS011;62316;48.920;2.342;2023-07-31T02:06:22;4.33;;;2.33;;
73959;SDS011;62316;48.920;2.342;2023-07-31T02:08:48;2.67;;;2.67;;
73959;SDS011;62316;48.920;2.342;2023-07-31T02:11:13;3.00;;;2.00;;
73959;SDS011;62316;48.920;2.342;2023-07-31T02:13:38;3.33;;;2.33;;
73959;SDS011;62316;48.920;2.342;2023-07-31T02:16:03;3.67;;;2.33;;
73959;SDS011;62316;48.920;2.342;2023-07-31T02:18:29;2.67;;;1.67;;
73959;SDS011;62316;48.920;2.342;2023-07-31T02:20:54;1.67;;;1.67;;
73959;SDS011;62316;48.920;2.342;2023-07-31T02:23:19;2.00;;;2.00;;
73959;SDS011;62316;48.920;2.342;2023-07-31T02:25:45;0.67;;;0.67;;
73959;SDS011;62316;48.920;2.342;2023-07-31T02:28:10;0.33;;;0.33;;
73959;SDS011;62316;48.920;2.342;2023-07-31T02:30:35;1.67;;;1.67;;
73959;SDS011;62316;48.920;2.342;2023-07-31T02:33:01;3.00;;;2.00;;
73959;SDS011;62316;48.920;2.342;2023-07-31T02:35:26;0.00;;;0.00;;
73959;SDS011;62316;48.920;2.342;2023-07-31T02:37:51;1.67;;;1.67;;
73959;SDS011;62316;48.920;2.342;2023-07-31T02:40:16;1.67;;;1.67;;
73959;SDS011;62316;48.920;2.342;2023-07-31T02:42:42;3.00;;;2.00;;
73959;SDS011;62316;48.920;2.342;2023-07-31T02:45:07;1.67;;;1.67;;
73959;SDS011;62316;48.920;2.342;2023-07-31T02:47:32;2.67;;;1.67;;
73959;SDS011;62316;48.920;2.342;2023-07-31T02:49:57;0.67;;;0.67;;
73959;SDS011;62316;48.920;2.342;2023-07-31T02:52:24;2.33;;;2.00;;
73959;SDS011;62316;48.920;2.342;2023-07-31T02:54:49;1.33;;;1.33;;
73959;SDS011;62316;48.920;2.342;2023-07-31T02:57:14;2.33;;;1.33;;
73959;SDS011;62316;48.920;2.342;2023-07-31T02:59:41;5.00;;;2.00;;
73959;SDS011;62316;48.920;2.342;2023-07-31T03:02:06;1.33;;;1.33;;
73959;SDS011;62316;48.920;2.342;2023-07-31T03:04:31;1.67;;;1.67;;
73959;SDS011;62316;48.920;2.342;2023-07-31T03:06:56;2.00;;;2.00;;
73959;SDS011;62316;48.920;2.342;2023-07-31T03:09:22;1.33;;;1.00;;
73959;SDS011;62316;48.920;2.342;2023-07-31T03:11:47;2.33;;;1.33;;
73959;SDS011;62316;48.920;2.342;2023-07-31T03:14:12;0.67;;;0.67;;
73959;SDS011;62316;48.920;2.342;2023-07-31T03:16:37;1.67;;;1.67;;
73959;SDS011;62316;48.920;2.342;2023-07-31T03:19:02;2.67;;;2.67;;
73959;SDS011;62316;48.920;2.342;2023-07-31T03:21:28;1.33;;;1.00;;
73959;SDS011;62316;48.920;2.342;2023-07-31T03:23:53;1.00;;;0.00;;
73959;SDS011;62316;48.920;2.342;2023-07-31T03:26:18;2.00;;;2.00;;
73959;SDS011;62316;48.920;2.342;2023-07-31T03:28:43;1.00;;;1.00;;
73959;SDS011;62316;48.920;2.342;2023-07-31T03:31:09;2.67;;;1.67;;
73959;SDS011;62316;48.920;2.342;2023-07-31T03:33:34;0.67;;;0.67;;
73959;SDS011;62316;48.920;2.342;2023-07-31T03:35:59;1.00;;;1.00;;
73959;SDS011;62316;48.920;2.342;2023-07-31T03:38:24;1.00;;;1.00;;
73959;SDS011;62316;48.920;2.342;2023-07-31T03:40:50;2.67;;;2.00;;
73959;SDS011;62316;48.920;2.342;2023-07-31T03:43:15;1.00;;;1.00;;
73959;SDS011;62316;48.920;2.342;2023-07-31T03:45:40;0.67;;;0.67;;
73959;SDS011;62316;48.920;2.342;2023-07-31T03:48:05;2.00;;;2.00;;
73959;SDS011;62316;48.920;2.342;2023-07-31T03:50:32;2.00;;;1.33;;
73959;SDS011;62316;48.920;2.342;2023-07-31T03:52:58;1.33;;;1.33;;
73959;SDS011;62316;48.920;2.342;2023-07-31T03:55:23;1.00;;;1.00;;
73959;SDS011;62316;48.920;2.342;2023-07-31T03:57:48;2.00;;;2.00;;
73959;SDS011;62316;48.920;2.342;2023-07-31T04:00:13;2.00;;;2.00;;
73959;SDS011;62316;48.920;2.342;2023-07-31T04:02:39;1.33;;;1.00;;
73959;SDS011;62316;48.920;2.342;2023-07-31T04:05:04;5.00;;;2.00;;
73959;SDS011;62316;48.920;2.342;2023-07-31T04:07:29;2.00;;;2.00;;
73959;SDS011;62316;48.920;2.342;2023-07-31T04:09:55;0.00;;;0.00;;
73959;SDS011;62316;48.920;2.342;2023-07-31T04:12:20;2.00;;;2.00;;
73959;SDS011;62316;48.920;2.342;2023-07-31T04:14:45;2.00;;;2.00;;
73959;SDS011;62316;48.920;2.342;2023-07-31T04:17:10;2.33;;;2.33;;
73959;SDS011;62316;48.920;2.342;2023-07-31T04:19:35;3.33;;;1.67;;
73959;SDS011;62316;48.920;2.342;2023-07-31T04:22:01;4.67;;;2.00;;
73959;SDS011;62316;48.920;2.342;2023-07-31T04:24:26;2.00;;;2.00;;
73959;SDS011;62316;48.920;2.342;2023-07-31T04:26:51;2.00;;;0.67;;
73959;SDS011;62316;48.920;2.342;2023-07-31T04:29:17;2.67;;;1.67;;
73959;SDS011;62316;48.920;2.342;2023-07-31T04:31:42;4.33;;;3.00;;
73959;SDS011;62316;48.920;2.342;2023-07-31T04:34:08;2.67;;;1.00;;
73959;SDS011;62316;48.920;2.342;2023-07-31T04:36:33;3.33;;;2.33;;
73959;SDS011;62316;48.920;2.342;2023-07-31T04:38:58;2.00;;;2.00;;
73959;SDS011;62316;48.920;2.342;2023-07-31T04:41:23;1.33;;;0.67;;
73959;SDS011;62316;48.920;2.342;2023-07-31T04:43:49;5.33;;;3.00;;
73959;SDS011;62316;48.920;2.342;2023-07-31T04:46:14;2.67;;;1.67;;
73959;SDS011;62316;48.920;2.342;2023-07-31T04:48:39;2.33;;;1.67;;
73959;SDS011;62316;48.920;2.342;2023-07-31T04:51:05;3.33;;;2.00;;
73959;SDS011;62316;48.920;2.342;2023-07-31T04:53:30;2.00;;;2.00;;
73959;SDS011;62316;48.920;2.342;2023-07-31T04:55:55;2.33;;;1.67;;
73959;SDS011;62316;48.920;2.342;2023-07-31T04:58:20;2.00;;;2.00;;
73959;SDS011;62316;48.920;2.342;2023-07-31T05:00:45;2.33;;;2.33;;
73959;SDS011;62316;48.920;2.342;2023-07-31T05:03:11;3.00;;;2.00;;
73959;SDS011;62316;48.920;2.342;2023-07-31T05:05:36;3.00;;;3.00;;
73959;SDS011;62316;48.920;2.342;2023-07-31T05:08:02;6.00;;;5.00;;
73959;SDS011;62316;48.920;2.342;2023-07-31T05:10:27;5.00;;;3.00;;
73959;SDS011;62316;48.920;2.342;2023-07-31T05:12:52;4.00;;;4.00;;
73959;SDS011;62316;48.920;2.342;2023-07-31T05:15:17;7.00;;;4.00;;
73959;SDS011;62316;48.920;2.342;2023-07-31T05:17:43;4.67;;;3.00;;
73959;SDS011;62316;48.920;2.342;2023-07-31T05:20:08;3.33;;;3.33;;
73959;SDS011;62316;48.920;2.342;2023-07-31T05:22:34;4.67;;;3.67;;
73959;SDS011;62316;48.920;2.342;2023-07-31T05:24:59;7.00;;;4.67;;
73959;SDS011;62316;48.920;2.342;2023-07-31T05:27:25;6.00;;;4.33;;
73959;SDS011;62316;48.920;2.342;2023-07-31T05:29:50;5.00;;;5.00;;
73959;SDS011;62316;48.920;2.342;2023-07-31T05:32:15;4.00;;;3.00;;
73959;SDS011;62316;48.920;2.342;2023-07-31T05:34:40;3.67;;;3.33;;
73959;SDS011;62316;48.920;2.342;2023-07-31T05:37:06;9.00;;;6.00;;
73959;SDS011;62316;48.920;2.342;2023-07-31T05:39:31;8.00;;;6.33;;
73959;SDS011;62316;48.920;2.342;2023-07-31T05:41:56;3.00;;;2.00;;
73959;SDS011;62316;48.920;2.342;2023-07-31T05:44:21;6.00;;;5.00;;
73959;SDS011;62316;48.920;2.342;2023-07-31T05:46:47;5.00;;;2.33;;
73959;SDS011;62316;48.920;2.342;2023-07-31T05:49:12;5.67;;;5.00;;
73959;SDS011;62316;48.920;2.342;2023-07-31T05:51:37;5.00;;;4.67;;
73959;SDS011;62316;48.920;2.342;2023-07-31T05:54:02;5.33;;;4.67;;
73959;SDS011;62316;48.920;2.342;2023-07-31T05:56:28;5.00;;;4.67;;
73959;SDS011;62316;48.920;2.342;2023-07-31T05:58:53;5.67;;;4.67;;
73959;SDS011;62316;48.920;2.342;2023-07-31T06:01:18;6.00;;;5.00;;
73959;SDS011;62316;48.920;2.342;2023-07-31T06:03:44;7.67;;;6.67;;
73959;SDS011;62316;48.920;2.342;2023-07-31T06:06:09;8.00;;;5.00;;
73959;SDS011;62316;48.920;2.342;2023-07-31T06:08:34;9.33;;;6.33;;
73959;SDS011;62316;48.920;2.342;2023-07-31T06:10:59;10.00;;;6.67;;
73959;SDS011;62316;48.920;2.342;2023-07-31T06:13:25;6.00;;;6.00;;
73959;SDS011;62316;48.920;2.342;2023-07-31T06:15:50;6.33;;;3.67;;
73959;SDS011;62316;48.920;2.342;2023-07-31T06:18:19;2.00;;;2.00;;
73959;SDS011;62316;48.920;2.342;2023-07-31T06:20:44;7.33;;;6.00;;
73959;SDS011;62316;48.920;2.342;2023-07-31T06:23:09;7.33;;;5.33;;
73959;SDS011;62316;48.920;2.342;2023-07-31T06:25:34;9.33;;;7.33;;
73959;SDS011;62316;48.920;2.342;2023-07-31T06:28:00;12.00;;;10.33;;
73959;SDS011;62316;48.920;2.342;2023-07-31T06:30:25;8.67;;;5.00;;
73959;SDS011;62316;48.920;2.342;2023-07-31T06:32:50;6.33;;;6.33;;
73959;SDS011;62316;48.920;2.342;2023-07-31T06:35:15;10.67;;;7.67;;
73959;SDS011;62316;48.920;2.342;2023-07-31T06:37:40;7.00;;;7.00;;
73959;SDS011;62316;48.920;2.342;2023-07-31T06:40:08;4.33;;;4.00;;
73959;SDS011;62316;48.920;2.342;2023-07-31T06:42:34;4.33;;;3.00;;
73959;SDS011;62316;48.920;2.342;2023-07-31T06:45:00;4.67;;;4.67;;
73959;SDS011;62316;48.920;2.342;2023-07-31T06:47:25;6.33;;;6.00;;
73959;SDS011;62316;48.920;2.342;2023-07-31T06:49:51;8.00;;;8.00;;
73959;SDS011;62316;48.920;2.342;2023-07-31T06:52:16;9.33;;;7.00;;
73959;SDS011;62316;48.920;2.342;2023-07-31T06:54:41;8.00;;;3.00;;
73959;SDS011;62316;48.920;2.342;2023-07-31T06:57:06;7.00;;;4.33;;
73959;SDS011;62316;48.920;2.342;2023-07-31T06:59:32;8.00;;;6.33;;
73959;SDS011;62316;48.920;2.342;2023-07-31T07:01:57;10.00;;;7.00;;
73959;SDS011;62316;48.920;2.342;2023-07-31T07:04:22;7.33;;;7.33;;
73959;SDS011;62316;48.920;2.342;2023-07-31T07:06:47;9.00;;;6.33;;
73959;SDS011;62316;48.920;2.342;2023-07-31T07:09:12;11.00;;;9.00;;
73959;SDS011;62316;48.920;2.342;2023-07-31T07:11:38;8.33;;;7.00;;
73959;SDS011;62316;48.920;2.342;2023-07-31T07:14:03;15.67;;;12.33;;
73959;SDS011;62316;48.920;2.342;2023-07-31T07:16:28;10.00;;;9.00;;
73959;SDS011;62316;48.920;2.342;2023-07-31T07:18:54;6.00;;;6.00;;
73959;SDS011;62316;48.920;2.342;2023-07-31T07:21:26;6.00;;;6.00;;
73959;SDS011;62316;48.920;2.342;2023-07-31T07:23:51;9.33;;;7.33;;
73959;SDS011;62316;48.920;2.342;2023-07-31T07:26:16;8.67;;;6.00;;
73959;SDS011;62316;48.920;2.342;2023-07-31T07:28:41;10.00;;;9.00;;
73959;SDS011;62316;48.920;2.342;2023-07-31T07:31:07;8.67;;;6.00;;
73959;SDS011;62316;48.920;2.342;2023-07-31T07:33:32;6.33;;;3.67;;
73959;SDS011;62316;48.920;2.342;2023-07-31T07:35:59;6.33;;;3.67;;
73959;SDS011;62316;48.920;2.342;2023-07-31T07:38:25;8.33;;;6.67;;
73959;SDS011;62316;48.920;2.342;2023-07-31T07:40:50;10.33;;;7.33;;
73959;SDS011;62316;48.920;2.342;2023-07-31T07:43:17;9.00;;;7.00;;
73959;SDS011;62316;48.920;2.342;2023-07-31T07:45:43;7.33;;;5.00;;
73959;SDS011;62316;48.920;2.342;2023-07-31T07:48:08;8.67;;;6.67;;
73959;SDS011;62316;48.920;2.342;2023-07-31T07:50:33;11.67;;;7.33;;
73959;SDS011;62316;48.920;2.342;2023-07-31T07:52:58;5.67;;;5.00;;
73959;SDS011;62316;48.920;2.342;2023-07-31T07:55:24;7.00;;;6.67;;
73959;SDS011;62316;48.920;2.342;2023-07-31T07:57:49;6.33;;;6.33;;
73959;SDS011;62316;48.920;2.342;2023-07-31T08:00:23;10.67;;;8.00;;
73959;SDS011;62316;48.920;2.342;2023-07-31T08:02:55;8.00;;;7.00;;
73959;SDS011;62316;48.920;2.342;2023-07-31T08:05:27;7.33;;;6.67;;
73959;SDS011;62316;48.920;2.342;2023-07-31T08:07:52;11.00;;;10.00;;
73959;SDS011;62316;48.920;2.342;2023-07-31T08:10:18;10.00;;;8.00;;
73959;SDS011;62316;48.920;2.342;2023-07-31T08:12:43;11.33;;;6.67;;
73959;SDS011;62316;48.920;2.342;2023-07-31T08:15:08;8.00;;;1.67;;
73959;SDS011;62316;48.920;2.342;2023-07-31T08:17:33;5.67;;;5.67;;
73959;SDS011;62316;48.920;2.342;2023-07-31T08:19:59;8.00;;;7.00;;
73959;SDS011;62316;48.920;2.342;2023-07-31T08:22:24;7.33;;;5.33;;
73959;SDS011;62316;48.920;2.342;2023-07-31T08:24:50;8.00;;;6.67;;
73959;SDS011;62316;48.920;2.342;2023-07-31T08:27:15;5.67;;;4.67;;
73959;SDS011;62316;48.920;2.342;2023-07-31T08:29:41;5.33;;;5.33;;
73959;SDS011;62316;48.920;2.342;2023-07-31T08:32:06;8.00;;;6.33;;
73959;SDS011;62316;48.920;2.342;2023-07-31T08:34:31;8.00;;;5.67;;
73959;SDS011;62316;48.920;2.342;2023-07-31T08:36:57;7.00;;;6.00;;
73959;SDS011;62316;48.920;2.342;2023-07-31T08:39:22;5.67;;;5.33;;
73959;SDS011;62316;48.920;2.342;2023-07-31T08:41:47;6.00;;;6.00;;
73959;SDS011;62316;48.920;2.342;2023-07-31T08:44:12;7.00;;;5.00;;
73959;SDS011;62316;48.920;2.342;2023-07-31T08:46:39;4.67;;;4.00;;
73959;SDS011;62316;48.920;2.342;2023-07-31T08:49:04;6.67;;;5.33;;
73959;SDS011;62316;48.920;2.342;2023-07-31T08:51:31;7.00;;;6.33;;
73959;SDS011;62316;48.920;2.342;2023-07-31T08:53:57;11.00;;;8.33;;
73959;SDS011;62316;48.920;2.342;2023-07-31T08:56:22;13.00;;;7.00;;
73959;SDS011;62316;48.920;2.342;2023-07-31T08:58:48;6.00;;;5.00;;
73959;SDS011;62316;48.920;2.342;2023-07-31T09:01:14;7.00;;;4.67;;
73959;SDS011;62316;48.920;2.342;2023-07-31T09:03:40;6.67;;;6.67;;
73959;SDS011;62316;48.920;2.342;2023-07-31T09:06:12;7.00;;;6.00;;
73959;SDS011;62316;48.920;2.342;2023-07-31T09:08:38;6.33;;;6.00;;
73959;SDS011;62316;48.920;2.342;2023-07-31T09:11:07;6.67;;;5.67;;
73959;SDS011;62316;48.920;2.342;2023-07-31T09:13:32;4.67;;;4.00;;
73959;SDS011;62316;48.920;2.342;2023-07-31T09:15:57;8.67;;;7.67;;
73959;SDS011;62316;48.920;2.342;2023-07-31T09:18:23;6.33;;;5.33;;
73959;SDS011;62316;48.920;2.342;2023-07-31T09:21:04;7.00;;;6.00;;
73959;SDS011;62316;48.920;2.342;2023-07-31T09:23:42;5.00;;;3.67;;
73959;SDS011;62316;48.920;2.342;2023-07-31T09:26:07;5.67;;;5.67;;
73959;SDS011;62316;48.920;2.342;2023-07-31T09:28:33;7.00;;;6.33;;
73959;SDS011;62316;48.920;2.342;2023-07-31T09:30:58;5.67;;;5.67;;
73959;SDS011;62316;48.920;2.342;2023-07-31T09:33:23;5.67;;;5.33;;
73959;SDS011;62316;48.920;2.342;2023-07-31T09:35:48;4.00;;;2.67;;
73959;SDS011;62316;48.920;2.342;2023-07-31T09:38:14;6.33;;;6.00;;
73959;SDS011;62316;48.920;2.342;2023-07-31T09:40:43;4.00;;;4.00;;
73959;SDS011;62316;48.920;2.342;2023-07-31T09:43:09;7.00;;;6.00;;
73959;SDS011;62316;48.920;2.342;2023-07-31T09:45:38;6.33;;;5.00;;
73959;SDS011;62316;48.920;2.342;2023-07-31T09:48:08;5.00;;;5.00;;
73959;SDS011;62316;48.920;2.342;2023-07-31T09:50:34;8.67;;;5.33;;
73959;SDS011;62316;48.920;2.342;2023-07-31T09:53:01;8.00;;;7.00;;
73959;SDS011;62316;48.920;2.342;2023-07-31T09:55:26;7.33;;;6.00;;
73959;SDS011;62316;48.920;2.342;2023-07-31T09:57:52;6.67;;;6.67;;
73959;SDS011;62316;48.920;2.342;2023-07-31T10:00:20;6.67;;;5.67;;
73959;SDS011;62316;48.920;2.342;2023-07-31T10:02:47;7.67;;;5.67;;
73959;SDS011;62316;48.920;2.342;2023-07-31T10:05:15;6.00;;;6.00;;
73959;SDS011;62316;48.920;2.342;2023-07-31T10:07:46;7.33;;;6.33;;
73959;SDS011;62316;48.920;2.342;2023-07-31T10:10:13;6.33;;;6.00;;
73959;SDS011;62316;48.920;2.342;2023-07-31T10:12:40;6.67;;;6.33;;
73959;SDS011;62316;48.920;2.342;2023-07-31T10:15:08;6.67;;;6.00;;
73959;SDS011;62316;48.920;2.342;2023-07-31T10:17:33;5.00;;;5.00;;
73959;SDS011;62316;48.920;2.342;2023-07-31T10:20:00;5.67;;;5.33;;
73959;SDS011;62316;48.920;2.342;2023-07-31T10:22:28;5.00;;;5.00;;
73959;SDS011;62316;48.920;2.342;2023-07-31T10:24:54;10.33;;;6.67;;
73959;SDS011;62316;48.920;2.342;2023-07-31T10:27:20;6.33;;;6.33;;
73959;SDS011;62316;48.920;2.342;2023-07-31T10:29:45;4.00;;;2.67;;
73959;SDS011;62316;48.920;2.342;2023-07-31T10:32:12;6.67;;;6.67;;
73959;SDS011;62316;48.920;2.342;2023-07-31T10:34:38;8.33;;;6.00;;
73959;SDS011;62316;48.920;2.342;2023-07-31T10:37:20;6.67;;;6.67;;
73959;SDS011;62316;48.920;2.342;2023-07-31T10:39:55;10.33;;;8.67;;
73959;SDS011;62316;48.920;2.342;2023-07-31T10:42:20;7.67;;;5.67;;
73959;SDS011;62316;48.920;2.342;2023-07-31T10:44:56;6.33;;;6.00;;
73959;SDS011;62316;48.920;2.342;2023-07-31T10:47:22;6.33;;;6.33;;
73959;SDS011;62316;48.920;2.342;2023-07-31T10:49:47;5.00;;;5.00;;
73959;SDS011;62316;48.920;2.342;2023-07-31T10:52:13;6.00;;;6.00;;
73959;SDS011;62316;48.920;2.342;2023-07-31T10:54:38;10.33;;;7.33;;
73959;SDS011;62316;48.920;2.342;2023-07-31T10:57:18;7.00;;;6.00;;
73959;SDS011;62316;48.920;2.342;2023-07-31T10:59:43;9.00;;;8.00;;
73959;SDS011;62316;48.920;2.342;2023-07-31T11:02:08;9.00;;;9.00;;
73959;SDS011;62316;48.920;2.342;2023-07-31T11:05:05;7.00;;;6.00;;
73959;SDS011;62316;48.920;2.342;2023-07-31T11:07:46;11.33;;;10.33;;
73959;SDS011;62316;48.920;2.342;2023-07-31T11:10:11;7.00;;;6.00;;
73959;SDS011;62316;48.920;2.342;2023-07-31T11:12:36;6.33;;;6.33;;
73959;SDS011;62316;48.920;2.342;2023-07-31T11:15:02;9.33;;;7.00;;
73959;SDS011;62316;48.920;2.342;2023-07-31T11:17:28;5.33;;;3.00;;
73959;SDS011;62316;48.920;2.342;2023-07-31T11:19:53;7.33;;;6.33;;
73959;SDS011;62316;48.920;2.342;2023-07-31T11:22:18;8.67;;;6.00;;
73959;SDS011;62316;48.920;2.342;2023-07-31T11:24:46;7.33;;;7.33;;
73959;SDS011;62316;48.920;2.342;2023-07-31T11:27:11;7.67;;;7.33;;
73959;SDS011;62316;48.920;2.342;2023-07-31T11:29:37;9.33;;;8.00;;
73959;SDS011;62316;48.920;2.342;2023-07-31T11:32:02;8.00;;;8.00;;
73959;SDS011;62316;48.920;2.342;2023-07-31T11:34:28;8.00;;;8.00;;
73959;SDS011;62316;48.920;2.342;2023-07-31T11:36:56;8.00;;;7.00;;
73959;SDS011;62316;48.920;2.342;2023-07-31T11:39:21;10.00;;;8.67;;
73959;SDS011;62316;48.920;2.342;2023-07-31T11:41:47;7.00;;;6.00;;
73959;SDS011;62316;48.920;2.342;2023-07-31T11:44:12;5.67;;;5.67;;
73959;SDS011;62316;48.920;2.342;2023-07-31T11:46:37;8.00;;;8.00;;
73959;SDS011;62316;48.920;2.342;2023-07-31T11:49:04;10.00;;;7.00;;
73959;SDS011;62316;48.920;2.342;2023-07-31T11:51:31;9.00;;;8.33;;
73959;SDS011;62316;48.920;2.342;2023-07-31T11:53:57;10.00;;;7.67;;
73959;SDS011;62316;48.920;2.342;2023-07-31T11:56:24;8.00;;;8.00;;
73959;SDS011;62316;48.920;2.342;2023-07-31T11:58:50;5.67;;;5.67;;
73959;SDS011;62316;48.920;2.342;2023-07-31T12:01:18;9.67;;;8.33;;
73959;SDS011;62316;48.920;2.342;2023-07-31T12:03:44;9.67;;;9.00;;
73959;SDS011;62316;48.920;2.342;2023-07-31T12:06:10;8.67;;;7.00;;
73959;SDS011;62316;48.920;2.342;2023-07-31T12:08:36;8.00;;;8.00;;
73959;SDS011;62316;48.920;2.342;2023-07-31T12:11:04;7.67;;;7.67;;
73959;SDS011;62316;48.920;2.342;2023-07-31T12:13:30;9.67;;;8.33;;
73959;SDS011;62316;48.920;2.342;2023-07-31T12:15:56;8.67;;;8.67;;
73959;SDS011;62316;48.920;2.342;2023-07-31T12:18:23;8.67;;;7.00;;
73959;SDS011;62316;48.920;2.342;2023-07-31T12:20:58;11.00;;;10.00;;
73959;SDS011;62316;48.920;2.342;2023-07-31T12:23:25;12.33;;;11.67;;
73959;SDS011;62316;48.920;2.342;2023-07-31T12:26:09;6.67;;;6.00;;
73959;SDS011;62316;48.920;2.342;2023-07-31T12:34:03;10.33;;;7.00;;
73959;SDS011;62316;48.920;2.342;2023-07-31T12:36:39;7.00;;;7.00;;
73959;SDS011;62316;48.920;2.342;2023-07-31T12:39:04;10.00;;;7.00;;
73959;SDS011;62316;48.920;2.342;2023-07-31T12:41:30;9.67;;;7.67;;
73959;SDS011;62316;48.920;2.342;2023-07-31T12:43:55;9.33;;;8.00;;
73959;SDS011;62316;48.920;2.342;2023-07-31T12:46:20;7.33;;;6.33;;
73959;SDS011;62316;48.920;2.342;2023-07-31T12:48:45;6.33;;;5.33;;
73959;SDS011;62316;48.920;2.342;2023-07-31T12:51:11;8.67;;;7.00;;
73959;SDS011;62316;48.920;2.342;2023-07-31T12:53:36;7.67;;;6.67;;
73959;SDS011;62316;48.920;2.342;2023-07-31T12:56:01;11.00;;;9.67;;
73959;SDS011;62316;48.920;2.342;2023-07-31T12:58:26;10.33;;;10.00;;
73959;SDS011;62316;48.920;2.342;2023-07-31T13:00:52;8.33;;;8.33;;
73959;SDS011;62316;48.920;2.342;2023-07-31T13:03:17;9.00;;;8.67;;
73959;SDS011;62316;48.920;2.342;2023-07-31T13:05:42;7.33;;;6.33;;
73959;SDS011;62316;48.920;2.342;2023-07-31T13:08:08;7.00;;;6.33;;
73959;SDS011;62316;48.920;2.342;2023-07-31T13:10:33;7.33;;;7.33;;
73959;SDS011;62316;48.920;2.342;2023-07-31T13:12:58;4.33;;;4.33;;
73959;SDS011;62316;48.920;2.342;2023-07-31T13:15:23;7.67;;;6.33;;
73959;SDS011;62316;48.920;2.342;2023-07-31T13:17:49;8.00;;;7.00;;
73959;SDS011;62316;48.920;2.342;2023-07-31T13:20:14;8.67;;;7.67;;
73959;SDS011;62316;48.920;2.342;2023-07-31T13:22:39;9.00;;;7.67;;
73959;SDS011;62316;48.920;2.342;2023-07-31T13:25:05;5.33;;;5.33;;
73959;SDS011;62316;48.920;2.342;2023-07-31T13:27:31;11.33;;;11.33;;
73959;SDS011;62316;48.920;2.342;2023-07-31T13:29:56;11.33;;;8.67;;
73959;SDS011;62316;48.920;2.342;2023-07-31T13:32:21;10.67;;;9.00;;
73959;SDS011;62316;48.920;2.342;2023-07-31T13:34:47;7.33;;;6.67;;
73959;SDS011;62316;48.920;2.342;2023-07-31T13:37:12;7.00;;;7.00;;
73959;SDS011;62316;48.920;2.342;2023-07-31T13:39:38;6.33;;;4.00;;
73959;SDS011;62316;48.920;2.342;2023-07-31T13:42:03;6.33;;;5.33;;
73959;SDS011;62316;48.920;2.342;2023-07-31T13:44:28;6.67;;;6.67;;
73959;SDS011;62316;48.920;2.342;2023-07-31T13:46:54;3.00;;;3.00;;
73959;SDS011;62316;48.920;2.342;2023-07-31T13:49:19;7.33;;;7.33;;
73959;SDS011;62316;48.920;2.342;2023-07-31T13:51:44;4.00;;;4.00;;
73959;SDS011;62316;48.920;2.342;2023-07-31T13:54:09;8.00;;;5.00;;
73959;SDS011;62316;48.920;2.342;2023-07-31T13:56:36;5.67;;;4.00;;
73959;SDS011;62316;48.920;2.342;2023-07-31T13:59:02;7.67;;;6.00;;
73959;SDS011;62316;48.920;2.342;2023-07-31T14:01:27;6.33;;;5.67;;
73959;SDS011;62316;48.920;2.342;2023-07-31T14:03:52;9.00;;;6.33;;
73959;SDS011;62316;48.920;2.342;2023-07-31T14:06:17;4.67;;;3.00;;
73959;SDS011;62316;48.920;2.342;2023-07-31T14:08:43;7.00;;;5.00;;
73959;SDS011;62316;48.920;2.342;2023-07-31T14:11:08;6.00;;;5.00;;
73959;SDS011;62316;48.920;2.342;2023-07-31T14:13:33;5.67;;;5.00;;
73959;SDS011;62316;48.920;2.342;2023-07-31T14:15:58;9.00;;;7.00;;
73959;SDS011;62316;48.920;2.342;2023-07-31T14:18:24;5.00;;;4.33;;
73959;SDS011;62316;48.920;2.342;2023-07-31T14:20:49;5.67;;;5.33;;
73959;SDS011;62316;48.920;2.342;2023-07-31T14:23:14;5.33;;;5.00;;
73959;SDS011;62316;48.920;2.342;2023-07-31T14:25:40;6.00;;;6.00;;
73959;SDS011;62316;48.920;2.342;2023-07-31T14:28:05;5.67;;;4.67;;
73959;SDS011;62316;48.920;2.342;2023-07-31T14:30:30;5.00;;;5.00;;
73959;SDS011;62316;48.920;2.342;2023-07-31T14:32:56;8.67;;;4.67;;
73959;SDS011;62316;48.920;2.342;2023-07-31T14:35:21;9.33;;;7.00;;
73959;SDS011;62316;48.920;2.342;2023-07-31T14:37:55;4.33;;;4.00;;
73959;SDS011;62316;48.920;2.342;2023-07-31T14:40:21;6.33;;;4.33;;
73959;SDS011;62316;48.920;2.342;2023-07-31T14:42:46;3.67;;;3.67;;
73959;SDS011;62316;48.920;2.342;2023-07-31T14:45:11;5.67;;;4.33;;
73959;SDS011;62316;48.920;2.342;2023-07-31T14:50:15;8.00;;;6.00;;
73959;SDS011;62316;48.920;2.342;2023-07-31T14:52:41;5.00;;;5.00;;
73959;SDS011;62316;48.920;2.342;2023-07-31T14:55:06;6.00;;;6.00;;